Time;durP1;ratioP1;P1;durP2;ratioP2;P2;SDS_P1;SDS_P2;PMS_P1;PMS_P2;Temp;Humidity;BMP_temperature;BMP_pressure;BME280_temperature;BME280_humidity;BME280_pressure;Samples;Min_cycle;Max_cycle;Signal;HPM_P1;HPM_P2
2023/05/03 00:01:30;;;;;;;4.35;1.73;;;;;;;12.82;44.32;102801.47;5055701;28;20052;-61
2023/05/03 00:03:59;;;;;;;5.40;1.83;;;;;;;12.81;44.29;102806.03;5052056;28;20049;-60
2023/05/03 00:06:30;;;;;;;5.55;1.80;;;;;;;12.80;44.26;102806.22;5056494;28;20052;-61
2023/05/03 00:08:58;;;;;;;6.00;1.85;;;;;;;12.78;44.45;102803.72;5052900;28;20072;-61
2023/05/03 00:11:26;;;;;;;5.43;1.80;;;;;;;12.77;44.74;102801.22;5054002;28;20132;-61
2023/05/03 00:13:53;;;;;;;3.10;1.42;;;;;;;12.75;44.35;102798.69;5060402;28;20056;-61
2023/05/03 00:16:21;;;;;;;5.32;1.77;;;;;;;12.75;44.49;102803.25;5055322;28;20135;-61
2023/05/03 00:18:49;;;;;;;4.88;1.60;;;;;;;12.71;44.59;102800.94;5055444;28;20057;-61
2023/05/03 00:21:18;;;;;;;3.85;1.60;;;;;;;12.70;44.62;102799.25;5050838;28;20049;-61
2023/05/03 00:23:46;;;;;;;4.38;2.15;;;;;;;12.69;44.53;102796.75;5054426;28;20061;-60
2023/05/03 00:26:13;;;;;;;2.67;1.40;;;;;;;12.68;44.50;102801.31;5052267;28;20116;-61
2023/05/03 00:28:41;;;;;;;5.32;1.90;;;;;;;12.68;44.95;102800.47;5055585;28;20136;-61
2023/05/03 00:31:10;;;;;;;4.15;1.70;;;;;;;12.66;44.61;102795.28;5052783;28;20112;-60
2023/05/03 00:33:39;;;;;;;5.18;2.15;;;;;;;12.65;44.47;102798.16;5058981;28;20045;-61
2023/05/03 00:36:08;;;;;;;3.33;1.73;;;;;;;12.64;44.60;102801.88;5052684;28;20056;-61
2023/05/03 00:38:38;;;;;;;3.40;1.65;;;;;;;12.64;45.01;102799.19;5056889;28;20045;-61
2023/05/03 00:41:06;;;;;;;4.82;1.95;;;;;;;12.63;44.65;102797.50;5049465;28;20072;-60
2023/05/03 00:43:36;;;;;;;3.05;1.40;;;;;;;12.58;44.67;102791.84;5057349;28;20093;-61
2023/05/03 00:46:06;;;;;;;3.88;1.45;;;;;;;12.60;44.80;102801.41;5057923;28;20049;-61
2023/05/03 00:48:44;;;;;;;5.15;2.00;;;;;;;12.59;44.87;102801.59;5059312;28;20044;-60
2023/05/03 00:51:14;;;;;;;3.60;1.60;;;;;;;12.57;44.97;102803.66;5058244;28;20045;-60
2023/05/03 00:53:43;;;;;;;6.57;1.95;;;;;;;12.56;44.83;102804.69;5052784;28;20069;-60
2023/05/03 00:56:11;;;;;;;5.68;1.45;;;;;;;12.52;44.72;102797.97;5051144;28;20044;-60
2023/05/03 00:58:39;;;;;;;3.88;1.48;;;;;;;12.53;45.08;102794.25;5053310;28;20052;-60
2023/05/03 01:01:07;;;;;;;3.13;1.70;;;;;;;12.52;44.81;102796.13;5056569;28;20537;-60
2023/05/03 01:03:40;;;;;;;3.53;1.60;;;;;;;12.51;44.79;102793.59;5053451;28;20060;-60
2023/05/03 01:06:13;;;;;;;3.80;1.60;;;;;;;12.49;44.86;102788.41;5044603;28;20061;-60
2023/05/03 01:08:53;;;;;;;3.25;1.90;;;;;;;12.48;45.12;102788.59;5055248;28;20055;-60
2023/05/03 01:11:27;;;;;;;4.15;1.42;;;;;;;12.46;45.24;102785.25;5051959;28;20401;-60
2023/05/03 01:13:57;;;;;;;2.47;1.30;;;;;;;12.45;45.24;102786.28;5054299;28;20132;-60
2023/05/03 01:16:33;;;;;;;4.50;1.63;;;;;;;12.44;45.24;102795.38;5047370;28;20060;-61
2023/05/03 01:19:04;;;;;;;;;;;;;;;12.42;45.08;102800.97;5058206;28;20060;-60
2023/05/03 01:21:34;;;;;;;2.72;1.35;;;;;;;12.40;45.08;102800.31;5053167;28;19920;-60
2023/05/03 01:24:11;;;;;;;5.65;1.85;;;;;;;12.38;45.52;102796.97;5054738;28;20037;-60
2023/05/03 01:26:40;;;;;;;4.57;1.70;;;;;;;12.36;45.03;102799.84;5044549;28;20056;-60
2023/05/03 01:29:08;;;;;;;5.18;2.55;;;;;;;12.35;45.27;102805.41;5055184;28;20046;-60
2023/05/03 01:31:44;;;;;;;6.70;2.17;;;;;;;12.32;45.23;102798.53;5053981;28;20169;-61
2023/05/03 01:34:21;;;;;;;5.03;1.95;;;;;;;12.30;45.20;102805.13;5044166;28;20132;-61
2023/05/03 01:36:50;;;;;;;6.03;2.05;;;;;;;12.30;45.07;102805.13;5055752;28;20104;-61
2023/05/03 01:39:21;;;;;;;5.30;1.80;;;;;;;12.28;45.27;102813.41;5048611;28;20533;-61
2023/05/03 01:41:51;;;;;;;6.07;1.50;;;;;;;12.26;45.26;102807.38;5055889;28;20096;-61
2023/05/03 01:44:19;;;;;;;3.47;1.80;;;;;;;12.24;45.42;102809.41;5060473;28;20048;-61
2023/05/03 01:46:48;;;;;;;5.05;2.03;;;;;;;12.23;45.20;102812.28;5057163;28;20065;-61
2023/05/03 01:49:16;;;;;;;4.93;1.90;;;;;;;12.20;45.03;102810.81;5057477;28;20041;-60
2023/05/03 01:51:44;;;;;;;6.50;1.98;;;;;;;12.19;45.26;102806.44;5054013;28;20037;-61
2023/05/03 01:54:11;;;;;;;3.63;2.20;;;;;;;12.17;45.04;102807.63;5046786;28;20109;-61
2023/05/03 01:56:40;;;;;;;5.65;2.58;;;;;;;12.15;45.26;102810.53;5054070;28;20100;-61
2023/05/03 01:59:09;;;;;;;5.30;1.60;;;;;;;12.14;45.45;102811.53;5045851;28;20052;-61
2023/05/03 02:01:37;;;;;;;4.85;1.58;;;;;;;12.13;45.39;102814.44;5048689;28;20499;-60
2023/05/03 02:04:05;;;;;;;5.53;2.03;;;;;;;12.11;45.14;102811.94;5055341;28;20565;-60
2023/05/03 02:06:33;;;;;;;6.53;1.80;;;;;;;12.11;45.26;102819.19;5041354;28;20049;-60
2023/05/03 02:09:00;;;;;;;6.45;2.40;;;;;;;12.09;45.41;102815.84;5049474;28;20041;-60
2023/05/03 02:11:28;;;;;;;5.95;1.80;;;;;;;12.08;45.27;102819.56;5058576;28;20112;-61
2023/05/03 02:13:56;;;;;;;4.07;1.70;;;;;;;12.07;45.23;102812.50;5051841;28;20132;-61
2023/05/03 02:16:26;;;;;;;5.88;1.50;;;;;;;12.05;45.54;102813.50;5040393;28;20109;-61
2023/05/03 02:18:58;;;;;;;4.72;2.00;;;;;;;12.04;45.37;102802.91;5056081;28;20037;-61
2023/05/03 02:21:25;;;;;;;4.00;1.42;;;;;;;12.03;45.39;102812.84;5050928;28;20045;-60
2023/05/03 02:23:53;;;;;;;5.47;2.22;;;;;;;12.03;45.23;102803.94;5044828;28;20175;-60
2023/05/03 02:26:21;;;;;;;6.55;2.00;;;;;;;12.03;45.42;102807.47;5052318;28;20045;-61
2023/05/03 02:28:49;;;;;;;6.10;2.10;;;;;;;12.01;45.36;102792.50;5047226;28;20049;-60
2023/05/03 02:31:16;;;;;;;5.03;1.75;;;;;;;11.99;45.66;102795.38;5059622;28;20128;-60
2023/05/03 02:33:46;;;;;;;4.55;1.50;;;;;;;11.98;45.55;102785.63;5056534;28;20132;-60
2023/05/03 02:36:13;;;;;;;3.22;1.70;;;;;;;11.97;45.43;102791.19;5059176;28;20544;-60
2023/05/03 02:38:41;;;;;;;4.38;1.38;;;;;;;11.96;45.50;102787.66;5056717;28;20139;-61
2023/05/03 02:41:09;;;;;;;5.45;1.52;;;;;;;11.95;45.71;102775.22;5053389;28;20049;-60
2023/05/03 02:43:37;;;;;;;3.38;1.50;;;;;;;11.95;45.72;102777.06;5057614;28;20108;-60
2023/05/03 02:46:04;;;;;;;4.55;2.08;;;;;;;11.92;45.46;102774.75;5045890;28;20161;-61
2023/05/03 02:48:32;;;;;;;5.05;1.60;;;;;;;11.87;45.62;102766.38;5059590;28;20048;-60
2023/05/03 02:51:02;;;;;;;6.40;1.75;;;;;;;11.87;45.57;102767.22;5054634;28;20463;-60
2023/05/03 02:53:29;;;;;;;7.28;1.83;;;;;;;11.86;45.74;102756.63;5057659;28;20565;-60
2023/05/03 02:55:57;;;;;;;6.35;1.77;;;;;;;11.84;45.71;102756.78;5058463;28;20116;-61
2023/05/03 02:58:25;;;;;;;5.88;1.60;;;;;;;11.85;45.39;102754.94;5058813;28;20041;-60
2023/05/03 03:00:53;;;;;;;6.38;1.88;;;;;;;11.84;45.73;102748.72;5053672;28;20064;-61
2023/05/03 03:03:21;;;;;;;3.92;1.50;;;;;;;11.82;45.94;102747.22;5052494;28;20175;-61
2023/05/03 03:05:48;;;;;;;6.38;2.08;;;;;;;11.80;45.77;102747.41;5051903;28;20048;-61
2023/05/03 03:08:18;;;;;;;4.45;2.08;;;;;;;11.79;45.93;102750.28;5054944;28;20049;-61
2023/05/03 03:10:46;;;;;;;7.78;1.73;;;;;;;11.77;45.76;102750.47;5052244;28;20049;-61
2023/05/03 03:13:14;;;;;;;9.55;1.80;;;;;;;11.76;45.93;102764.09;5061387;28;20426;-61
2023/05/03 03:15:41;;;;;;;5.75;1.50;;;;;;;11.74;45.98;102766.97;5052664;28;20044;-61
2023/05/03 03:18:09;;;;;;;5.18;1.83;;;;;;;11.73;45.88;102767.97;5048418;28;20478;-61
2023/05/03 03:20:37;;;;;;;4.93;1.23;;;;;;;11.71;45.89;102761.94;5054189;28;20055;-61
2023/05/03 03:23:05;;;;;;;4.05;1.60;;;;;;;11.68;45.84;102757.75;5055141;28;20434;-60
2023/05/03 03:25:34;;;;;;;3.95;1.73;;;;;;;11.68;46.37;102759.63;5047695;28;20055;-61
2023/05/03 03:28:01;;;;;;;4.90;1.90;;;;;;;11.67;45.96;102753.38;5052397;28;20041;-61
2023/05/03 03:30:30;;;;;;;5.32;1.58;;;;;;;11.62;45.91;102754.97;5056265;28;20053;-61
2023/05/03 03:32:57;;;;;;;5.50;1.67;;;;;;;11.63;46.05;102770.94;5051298;28;20072;-61
2023/05/03 03:35:25;;;;;;;5.07;1.58;;;;;;;11.62;45.95;102781.88;5059356;28;20109;-59
2023/05/03 03:37:53;;;;;;;3.38;1.52;;;;;;;11.60;45.92;102778.53;5056927;28;20103;-60
2023/05/03 03:40:21;;;;;;;4.80;1.52;;;;;;;11.59;45.88;102772.31;5047799;28;20480;-60
2023/05/03 03:42:50;;;;;;;6.72;2.08;;;;;;;11.59;46.04;102768.78;5044986;28;20084;-60
2023/05/03 03:45:18;;;;;;;6.88;2.08;;;;;;;11.57;46.04;102762.75;5058738;28;20087;-60
2023/05/03 03:47:46;;;;;;;6.28;1.50;;;;;;;11.54;46.14;102766.63;5045986;28;20073;-60
2023/05/03 03:50:13;;;;;;;2.78;1.42;;;;;;;11.54;46.14;102771.19;5041889;28;20049;-60
2023/05/03 03:52:41;;;;;;;4.10;1.77;;;;;;;11.52;46.16;102768.66;5052372;28;20059;-60
2023/05/03 03:55:10;;;;;;;3.70;1.23;;;;;;;11.51;46.21;102764.31;5059393;28;20112;-60
2023/05/03 03:57:38;;;;;;;8.50;2.35;;;;;;;11.51;46.30;102758.91;5050833;28;20064;-60
2023/05/03 04:00:10;;;;;;;4.97;2.47;;;;;;;11.51;46.28;102767.00;5051780;28;20045;-61
2023/05/03 04:02:38;;;;;;;8.07;1.75;;;;;;;11.49;46.37;102770.88;5045411;28;20059;-60
2023/05/03 04:05:06;;;;;;;4.68;1.65;;;;;;;11.49;46.31;102768.19;5052054;28;20057;-60
2023/05/03 04:07:34;;;;;;;4.50;1.70;;;;;;;11.47;46.51;102778.31;5059099;28;20056;-60
2023/05/03 04:10:02;;;;;;;3.28;1.60;;;;;;;11.46;46.57;102777.47;5059974;28;20049;-61
2023/05/03 04:12:30;;;;;;;2.88;1.50;;;;;;;11.45;46.47;102770.41;5061427;28;20559;-61
2023/05/03 04:14:58;;;;;;;7.97;2.13;;;;;;;11.44;46.47;102778.66;5048370;28;20478;-60
2023/05/03 04:17:28;;;;;;;7.53;2.22;;;;;;;11.43;46.36;102780.53;5062060;28;20081;-61
2023/05/03 04:19:55;;;;;;;2.45;1.30;;;;;;;11.41;46.48;102782.56;5053268;28;20041;-61
2023/05/03 04:22:23;;;;;;;4.03;1.95;;;;;;;11.40;46.62;102781.72;5050203;28;20055;-61
2023/05/03 04:24:53;;;;;;;4.50;2.38;;;;;;;11.40;46.57;102788.97;5055485;28;20064;-61
2023/05/03 04:27:21;;;;;;;5.63;1.90;;;;;;;11.38;46.79;102775.69;5055224;28;20422;-61
2023/05/03 04:29:49;;;;;;;4.65;1.77;;;;;;;11.37;46.63;102787.47;5054625;28;20059;-61
2023/05/03 04:32:22;;;;;;;7.47;1.95;;;;;;;11.36;46.58;102790.34;5054859;28;20083;-61
2023/05/03 04:34:53;;;;;;;4.45;1.63;;;;;;;11.35;46.65;102791.34;5051109;28;20052;-61
2023/05/03 04:37:22;;;;;;;6.95;1.73;;;;;;;11.35;46.54;102783.28;5052978;28;20237;-60
2023/05/03 04:39:50;;;;;;;7.97;2.03;;;;;;;11.33;46.54;102796.06;5049822;28;20101;-60
2023/05/03 04:42:17;;;;;;;4.30;1.75;;;;;;;11.32;46.60;102797.09;5058407;28;20140;-62
2023/05/03 04:44:45;;;;;;;8.50;1.85;;;;;;;11.31;46.74;102795.41;5047428;28;20109;-61
2023/05/03 04:47:13;;;;;;;1.95;1.25;;;;;;;11.29;46.55;102800.97;5050707;28;20136;-61
2023/05/03 04:49:41;;;;;;;3.83;1.55;;;;;;;11.29;46.69;102810.91;5053700;28;20117;-62
2023/05/03 04:52:10;;;;;;;5.93;1.70;;;;;;;11.29;46.79;102816.28;5056837;28;20054;-62
2023/05/03 04:54:38;;;;;;;4.03;1.75;;;;;;;11.28;46.57;102817.31;5054779;28;20049;-62
2023/05/03 04:57:05;;;;;;;2.85;1.40;;;;;;;11.25;46.59;102831.13;5045362;28;20049;-62
2023/05/03 04:59:33;;;;;;;7.80;2.00;;;;;;;11.23;46.80;102839.38;5045534;28;20053;-61
2023/05/03 05:02:01;;;;;;;6.63;1.85;;;;;;;11.23;46.63;102838.53;5054197;28;20049;-62
2023/05/03 05:04:29;;;;;;;4.97;1.80;;;;;;;11.21;46.72;102844.09;5044766;28;20048;-63
2023/05/03 05:06:58;;;;;;;5.15;1.70;;;;;;;11.20;46.74;102846.97;5054656;28;20076;-60
2023/05/03 05:09:29;;;;;;;5.03;1.75;;;;;;;11.19;46.92;102861.44;5049611;28;20057;-60
2023/05/03 05:11:58;;;;;;;4.72;2.00;;;;;;;11.16;46.76;102853.72;5054378;28;20045;-60
2023/05/03 05:14:27;;;;;;;6.03;2.10;;;;;;;11.15;46.69;102860.13;5050497;28;20104;-60
2023/05/03 05:16:54;;;;;;;8.25;1.90;;;;;;;11.13;46.98;102860.28;5051385;28;20048;-60
2023/05/03 05:19:22;;;;;;;6.05;1.95;;;;;;;11.13;46.98;102860.28;5047536;28;20079;-61
2023/05/03 05:21:51;;;;;;;3.85;1.80;;;;;;;11.12;47.07;102858.63;5050506;28;20080;-61
2023/05/03 05:24:18;;;;;;;5.20;1.77;;;;;;;11.11;47.11;102854.25;5053366;28;20386;-60
2023/05/03 05:26:48;;;;;;;8.32;2.42;;;;;;;11.10;46.95;102857.94;5051267;28;20041;-60
2023/05/03 05:29:16;;;;;;;6.47;2.00;;;;;;;11.09;46.96;102856.28;5049097;28;20055;-60
2023/05/03 05:31:44;;;;;;;8.02;2.00;;;;;;;11.08;47.06;102850.06;5060015;28;20045;-62
2023/05/03 05:34:11;;;;;;;6.47;1.73;;;;;;;11.09;47.16;102842.81;5041638;28;20099;-61
2023/05/03 05:36:39;;;;;;;4.82;2.05;;;;;;;11.08;47.28;102844.66;5051224;28;20045;-60
2023/05/03 05:39:08;;;;;;;4.85;2.10;;;;;;;11.07;47.29;102843.00;5055042;28;20084;-61
2023/05/03 05:41:35;;;;;;;4.38;1.67;;;;;;;11.09;47.49;102840.13;5056381;28;20055;-65
2023/05/03 05:44:06;;;;;;;3.95;1.88;;;;;;;11.09;47.55;102838.28;5054196;28;20053;-61
2023/05/03 05:46:33;;;;;;;6.68;2.08;;;;;;;11.11;47.60;102842.66;5052789;28;20048;-62
2023/05/03 05:49:01;;;;;;;4.40;1.65;;;;;;;11.12;47.31;102839.78;5046655;28;20136;-61
2023/05/03 05:51:29;;;;;;;5.38;1.95;;;;;;;11.12;47.38;102834.41;5046340;28;20497;-61
2023/05/03 05:53:57;;;;;;;4.32;1.77;;;;;;;11.15;47.46;102839.41;5041398;28;20498;-61
2023/05/03 05:56:25;;;;;;;4.35;1.52;;;;;;;11.17;47.24;102850.00;5044726;28;20041;-61
2023/05/03 05:58:53;;;;;;;4.35;1.75;;;;;;;11.15;47.32;102850.19;5051101;28;20057;-62
2023/05/03 06:01:22;;;;;;;3.22;1.83;;;;;;;11.17;47.41;102853.53;5053454;28;20045;-68
2023/05/03 06:03:49;;;;;;;6.15;2.42;;;;;;;11.17;47.87;102855.41;5061675;28;20044;-60
2023/05/03 06:06:17;;;;;;;3.15;1.70;;;;;;;11.18;47.71;102852.53;5048162;28;20072;-60
2023/05/03 06:08:48;;;;;;;6.35;1.98;;;;;;;11.20;47.48;102850.50;5056699;28;20053;-61
2023/05/03 06:11:17;;;;;;;4.95;1.95;;;;;;;11.23;47.66;102850.13;5058617;28;20075;-60
2023/05/03 06:13:44;;;;;;;3.60;1.77;;;;;;;11.29;47.46;102846.75;5053241;28;20132;-61
2023/05/03 06:16:12;;;;;;;4.97;1.90;;;;;;;11.31;47.38;102847.41;5046572;28;20049;-61
2023/05/03 06:18:41;;;;;;;3.50;1.70;;;;;;;11.34;47.47;102847.03;5047555;28;20055;-61
2023/05/03 06:21:10;;;;;;;3.47;1.73;;;;;;;11.36;47.67;102845.00;5046548;28;20059;-61
2023/05/03 06:23:38;;;;;;;6.43;2.00;;;;;;;11.39;47.49;102841.97;5055600;28;20095;-61
2023/05/03 06:26:08;;;;;;;10.32;2.40;;;;;;;11.43;47.37;102834.38;5054356;28;20055;-61
2023/05/03 06:28:36;;;;;;;4.63;1.65;;;;;;;11.45;47.52;102829.66;5061049;28;20053;-60
2023/05/03 06:31:04;;;;;;;3.72;1.92;;;;;;;11.50;47.50;102834.50;5046324;28;20050;-60
2023/05/03 06:33:31;;;;;;;3.03;1.40;;;;;;;11.52;47.56;102841.38;5057886;28;20364;-61
2023/05/03 06:36:00;;;;;;;4.88;1.92;;;;;;;11.54;47.64;102841.19;5057057;28;20049;-61
2023/05/03 06:38:28;;;;;;;5.20;2.25;;;;;;;11.57;47.54;102838.97;5041118;28;20053;-60
2023/05/03 06:40:56;;;;;;;7.70;1.70;;;;;;;11.56;47.70;102840.00;5042072;28;20076;-61
2023/05/03 06:43:24;;;;;;;6.57;1.75;;;;;;;11.63;47.54;102843.66;5053015;28;20037;-60
2023/05/03 06:45:52;;;;;;;2.78;1.65;;;;;;;11.66;47.40;102837.06;5045029;28;20430;-60
2023/05/03 06:48:20;;;;;;;5.32;2.42;;;;;;;11.66;47.43;102843.28;5051870;28;20049;-60
2023/05/03 06:50:48;;;;;;;2.95;2.00;;;;;;;11.69;47.58;102836.72;5049807;28;20271;-60
2023/05/03 06:53:17;;;;;;;4.70;1.77;;;;;;;11.71;47.40;102832.81;5052779;28;20063;-61
2023/05/03 06:55:45;;;;;;;4.80;1.80;;;;;;;11.74;47.59;102829.75;5054037;28;20246;-61
2023/05/03 06:58:13;;;;;;;6.13;2.17;;;;;;;11.74;47.58;102818.97;5052587;28;20049;-60
2023/05/03 07:00:41;;;;;;;4.13;1.75;;;;;;;11.75;47.59;102819.81;5061779;28;20047;-61
2023/05/03 07:03:09;;;;;;;4.25;1.90;;;;;;;11.74;47.51;102818.97;5064117;28;20036;-60
2023/05/03 07:05:37;;;;;;;4.25;1.85;;;;;;;11.76;47.84;102817.97;5045850;28;20384;-60
2023/05/03 07:08:05;;;;;;;2.22;1.52;;;;;;;11.78;47.73;102814.09;5045378;28;20045;-60
2023/05/03 07:10:35;;;;;;;4.78;1.80;;;;;;;11.78;47.72;102824.88;5052925;28;20081;-60
2023/05/03 07:13:03;;;;;;;5.82;1.85;;;;;;;11.80;47.98;102830.09;5052401;28;20109;-60
2023/05/03 07:15:31;;;;;;;5.80;2.13;;;;;;;11.82;47.94;102825.34;5048499;28;20060;-59
2023/05/03 07:17:59;;;;;;;3.75;1.83;;;;;;;11.86;47.65;102829.34;5049452;28;20071;-60
2023/05/03 07:20:28;;;;;;;5.68;2.00;;;;;;;11.87;47.73;102825.66;5051712;28;20045;-60
2023/05/03 07:22:56;;;;;;;4.72;2.10;;;;;;;11.87;47.60;102822.94;5054337;28;20045;-60
2023/05/03 07:25:24;;;;;;;6.68;2.15;;;;;;;11.89;47.43;102821.75;5052396;28;20055;-59
2023/05/03 07:27:53;;;;;;;7.38;1.95;;;;;;;11.90;47.87;102826.13;5047827;28;20041;-60
2023/05/03 07:30:21;;;;;;;5.78;2.22;;;;;;;11.92;47.90;102824.06;5055037;28;20048;-61
2023/05/03 07:32:49;;;;;;;6.22;2.20;;;;;;;11.91;48.09;102827.78;5049435;28;20064;-60
2023/05/03 07:35:18;;;;;;;5.35;1.60;;;;;;;11.92;48.14;102824.06;5057980;28;20136;-60
2023/05/03 07:37:45;;;;;;;4.80;1.80;;;;;;;11.95;48.04;102826.41;5050256;28;20071;-62
2023/05/03 07:40:13;;;;;;;2.00;1.42;;;;;;;11.96;47.97;102816.47;5048299;28;20055;-61
2023/05/03 07:42:41;;;;;;;3.15;1.63;;;;;;;11.98;47.98;102806.34;5054009;28;20041;-60
2023/05/03 07:45:11;;;;;;;5.68;1.60;;;;;;;11.99;47.92;102808.03;5054753;28;20053;-60
2023/05/03 07:47:41;;;;;;;5.65;1.70;;;;;;;12.00;48.15;102805.13;5056543;28;20041;-60
2023/05/03 07:50:10;;;;;;;6.00;1.73;;;;;;;12.02;48.15;102804.97;5048233;28;20099;-61
2023/05/03 07:52:39;;;;;;;2.55;1.50;;;;;;;12.04;48.53;102809.13;5053078;28;20063;-61
2023/05/03 07:55:07;;;;;;;3.15;1.45;;;;;;;12.04;48.29;102808.31;5054195;28;20049;-60
2023/05/03 07:57:35;;;;;;;3.97;1.65;;;;;;;12.08;48.56;102804.22;5050439;28;20041;-60
2023/05/03 08:00:04;;;;;;;5.07;1.67;;;;;;;12.10;48.56;102795.97;5046344;28;20195;-60
2023/05/03 08:02:34;;;;;;;6.13;1.73;;;;;;;12.10;48.44;102799.50;5054362;28;20053;-60
2023/05/03 08:05:03;;;;;;;4.82;1.92;;;;;;;12.11;48.70;102793.06;5050869;28;20045;-60
2023/05/03 08:07:32;;;;;;;4.20;2.03;;;;;;;12.13;48.56;102788.34;5050276;28;20137;-61
2023/05/03 08:10:01;;;;;;;6.13;1.90;;;;;;;12.19;48.16;102786.72;5046933;28;20049;-60
2023/05/03 08:12:29;;;;;;;4.50;1.88;;;;;;;12.24;48.18;102782.44;5042778;28;20052;-61
2023/05/03 08:14:57;;;;;;;9.20;2.22;;;;;;;12.44;47.83;102766.56;5054316;28;20080;-60
2023/05/03 08:17:25;;;;;;;6.93;1.60;;;;;;;12.73;46.87;102762.16;5049928;28;20041;-60
2023/05/03 08:19:56;;;;;;;3.13;1.70;;;;;;;12.97;46.41;102765.34;5049476;28;20231;-60
2023/05/03 08:22:25;;;;;;;3.42;1.70;;;;;;;13.27;45.66;102755.31;5047127;28;20069;-60
2023/05/03 08:24:55;;;;;;;4.85;1.65;;;;;;;13.54;45.19;102758.25;5059259;28;20057;-60
2023/05/03 08:27:24;;;;;;;3.03;1.52;;;;;;;13.82;45.10;102764.50;5052837;28;20052;-60
2023/05/03 08:29:52;;;;;;;6.72;2.00;;;;;;;14.03;44.33;102755.47;5058217;28;20191;-60
2023/05/03 08:32:21;;;;;;;2.90;1.60;;;;;;;14.08;44.11;102758.41;5054081;28;20552;-60
2023/05/03 08:34:49;;;;;;;4.90;1.77;;;;;;;14.02;44.61;102754.63;5046770;28;20806;-60
2023/05/03 08:37:18;;;;;;;3.38;1.65;;;;;;;13.82;44.87;102756.41;5047641;28;20265;-60
2023/05/03 08:39:47;;;;;;;3.15;1.67;;;;;;;13.67;45.34;102752.94;5049210;28;20076;-60
2023/05/03 08:42:15;;;;;;;8.63;1.92;;;;;;;13.44;46.12;102752.34;5054544;28;20044;-60
2023/05/03 08:44:46;;;;;;;4.88;1.98;;;;;;;13.28;46.59;102756.13;5048420;28;20052;-59
2023/05/03 08:47:15;;;;;;;3.42;1.30;;;;;;;13.17;47.07;102754.78;5052049;28;20049;-60
2023/05/03 08:49:43;;;;;;;4.15;1.55;;;;;;;13.11;47.11;102752.81;5056270;28;20049;-60
2023/05/03 08:52:14;;;;;;;2.97;1.42;;;;;;;13.10;47.81;102747.63;5058224;28;20187;-60
2023/05/03 08:54:43;;;;;;;4.95;1.77;;;;;;;13.04;47.35;102749.22;5052161;28;20053;-60
2023/05/03 08:57:14;;;;;;;4.45;1.50;;;;;;;12.98;47.92;102748.13;5058594;28;20079;-60
2023/05/03 08:59:48;;;;;;;3.80;1.58;;;;;;;12.93;48.01;102755.13;5051581;28;20109;-60
2023/05/03 09:02:17;;;;;;;2.92;1.58;;;;;;;12.91;47.61;102762.56;5055473;28;20111;-60
2023/05/03 09:04:45;;;;;;;3.53;1.70;;;;;;;12.88;47.74;102779.13;5056792;28;20345;-60
2023/05/03 09:07:14;;;;;;;5.65;1.88;;;;;;;12.83;47.65;102766.22;5057415;28;20104;-60
2023/05/03 09:09:43;;;;;;;3.58;1.70;;;;;;;12.84;48.04;102767.88;5047444;28;20041;-60
2023/05/03 09:12:33;;;;;;;6.05;1.98;;;;;;;12.84;48.32;102772.44;5052158;28;20059;-60
2023/05/03 09:15:03;;;;;;;3.53;1.60;;;;;;;12.84;48.39;102762.50;5055962;28;20044;-60
2023/05/03 09:17:30;;;;;;;3.30;1.70;;;;;;;12.86;48.44;102759.59;5052294;28;20049;-60
2023/05/03 09:19:59;;;;;;;8.10;2.00;;;;;;;12.87;48.82;102754.00;5046115;28;20049;-60
2023/05/03 09:22:32;;;;;;;6.70;2.00;;;;;;;12.88;48.73;102760.25;5059999;28;20119;-60
2023/05/03 09:25:02;;;;;;;3.00;1.67;;;;;;;12.88;48.73;102768.34;5056948;28;20065;-61
2023/05/03 09:27:30;;;;;;;3.30;1.52;;;;;;;12.90;48.97;102763.59;5057220;28;20087;-60
2023/05/03 09:30:17;;;;;;;4.50;1.70;;;;;;;12.93;48.61;102755.94;5050393;28;20049;-60
2023/05/03 09:32:49;;;;;;;7.45;1.70;;;;;;;12.95;48.95;102753.06;5051814;28;20087;-60
2023/05/03 09:35:16;;;;;;;4.57;2.00;;;;;;;12.97;48.95;102753.72;5050119;28;21030;-61
2023/05/03 09:37:44;;;;;;;6.35;1.42;;;;;;;13.10;49.55;102756.53;5060297;28;20385;-61
2023/05/03 09:40:17;;;;;;;2.70;1.48;;;;;;;13.09;49.00;102743.25;5042638;28;20136;-61
2023/05/03 09:43:06;;;;;;;3.72;1.48;;;;;;;13.08;48.95;102738.88;5043628;28;20149;-61
2023/05/03 09:45:35;;;;;;;3.88;1.50;;;;;;;13.08;48.93;102753.22;5051672;28;20045;-61
2023/05/03 09:48:04;;;;;;;3.38;1.88;;;;;;;13.07;49.02;102751.53;5052613;28;20037;-61
2023/05/03 09:50:32;;;;;;;4.15;1.60;;;;;;;13.09;48.68;102749.47;5045878;28;21448;-62
2023/05/03 09:53:05;;;;;;;5.03;2.00;;;;;;;13.09;47.90;102740.53;5056445;28;20123;-61
2023/05/03 09:55:35;;;;;;;9.48;2.55;;;;;;;13.06;47.83;102743.63;5047607;28;20203;-61
2023/05/03 09:58:06;;;;;;;5.85;1.80;;;;;;;13.03;48.21;102734.88;5051267;28;20061;-62
2023/05/03 10:00:37;;;;;;;5.55;2.30;;;;;;;13.07;47.85;102737.19;5039398;28;20045;-62
2023/05/03 10:03:09;;;;;;;6.18;1.83;;;;;;;13.06;47.73;102735.53;5053791;28;20049;-61
2023/05/03 10:05:42;;;;;;;6.30;1.98;;;;;;;13.10;48.41;102737.66;5044446;28;20095;-62
2023/05/03 10:08:16;;;;;;;5.18;1.70;;;;;;;13.13;49.14;102734.56;5058806;28;20041;-61
2023/05/03 10:10:50;;;;;;;5.97;2.05;;;;;;;13.18;49.20;102728.63;5047039;28;20049;-62
2023/05/03 10:13:20;;;;;;;6.20;1.67;;;;;;;13.24;48.87;102719.75;5040889;28;20081;-62
2023/05/03 10:15:52;;;;;;;3.22;1.75;;;;;;;13.26;49.27;102725.78;5041723;28;20077;-61
2023/05/03 10:18:21;;;;;;;3.85;1.58;;;;;;;13.30;49.07;102718.97;5053013;28;20053;-62
2023/05/03 10:20:56;;;;;;;4.57;2.15;;;;;;;13.31;48.47;102726.03;5046899;28;20549;-61
2023/05/03 10:23:24;;;;;;;4.63;1.90;;;;;;;13.33;48.96;102732.09;5060410;28;20061;-62
2023/05/03 10:26:16;;;;;;;5.60;2.45;;;;;;;13.33;46.97;102722.13;5043891;28;20076;-62
2023/05/03 10:28:44;;;;;;;6.53;2.35;;;;;;;13.32;46.49;102716.91;5046191;28;20049;-61
2023/05/03 10:31:44;;;;;;;6.05;2.55;;;;;;;13.30;46.66;102727.06;5052995;28;20064;-62
2023/05/03 10:34:31;;;;;;;9.18;1.83;;;;;;;13.30;46.98;102724.38;5046847;28;20257;-61
2023/05/03 10:37:02;;;;;;;2.83;1.77;;;;;;;13.40;49.29;102724.03;5047428;28;20041;-60
2023/05/03 10:39:30;;;;;;;4.47;1.67;;;;;;;13.47;50.11;102728.47;5058024;28;20056;-60
2023/05/03 10:42:03;;;;;;;4.30;1.73;;;;;;;13.53;49.36;102732.25;5055889;28;20045;-61
2023/05/03 10:44:38;;;;;;;3.25;1.60;;;;;;;13.58;48.50;102722.53;5055080;28;20407;-60
2023/05/03 10:47:13;;;;;;;7.75;1.92;;;;;;;13.61;47.96;102722.16;5053656;28;20467;-60
2023/05/03 10:49:41;;;;;;;5.68;1.70;;;;;;;13.62;47.33;102726.53;5050818;28;20041;-60
2023/05/03 10:52:48;;;;;;;7.90;2.22;;;;;;;13.64;47.77;102723.63;5050339;28;20056;-60
2023/05/03 10:55:19;;;;;;;6.13;2.05;;;;;;;13.68;48.52;102722.19;5044144;28;20132;-60
2023/05/03 10:57:49;;;;;;;6.32;1.98;;;;;;;13.70;47.45;102732.81;5050565;28;20053;-61
2023/05/03 11:00:23;;;;;;;3.65;1.42;;;;;;;13.73;47.81;102733.25;5053329;28;20079;-60
2023/05/03 11:03:09;;;;;;;6.68;2.15;;;;;;;13.75;46.68;102723.09;5048152;28;20326;-60
2023/05/03 11:05:39;;;;;;;6.70;2.60;;;;;;;13.77;46.60;102725.59;5047007;28;20061;-60
2023/05/03 11:08:12;;;;;;;5.88;2.17;;;;;;;13.80;47.80;102723.31;5058768;28;20045;-60
2023/05/03 11:10:40;;;;;;;4.80;1.77;;;;;;;13.89;47.96;102719.41;5057661;28;20049;-60
2023/05/03 11:13:09;;;;;;;6.25;2.00;;;;;;;13.97;47.78;102715.72;5061726;28;20063;-60
2023/05/03 11:15:38;;;;;;;3.53;1.80;;;;;;;14.05;48.07;102714.72;5055607;28;20109;-60
2023/05/03 11:18:07;;;;;;;5.18;1.85;;;;;;;14.09;47.36;102699.78;5045213;28;20080;-60
2023/05/03 11:20:35;;;;;;;4.53;1.88;;;;;;;14.14;47.20;102687.31;5049289;28;20048;-60
2023/05/03 11:23:04;;;;;;;5.55;1.73;;;;;;;14.19;47.88;102684.00;5056760;28;20072;-60
2023/05/03 11:25:32;;;;;;;3.45;1.67;;;;;;;14.22;47.26;102694.44;5061741;28;20079;-60
2023/05/03 11:28:01;;;;;;;7.82;2.00;;;;;;;14.22;47.42;102697.13;5055650;28;20076;-59
2023/05/03 11:30:33;;;;;;;5.32;1.60;;;;;;;14.26;47.73;102683.00;5054017;28;20052;-60
2023/05/03 11:33:02;;;;;;;5.30;1.65;;;;;;;14.33;47.74;102683.03;5051963;28;20041;-60
2023/05/03 11:35:30;;;;;;;5.78;1.75;;;;;;;14.39;47.57;102687.63;5056864;28;20049;-60